Time;durP1;ratioP1;P1;durP2;ratioP2;P2;SDS_P1;SDS_P2;PMS_P1;PMS_P2;Temp;Humidity;BMP_temperature;BMP_pressure;BME280_temperature;BME280_humidity;BME280_pressure;Samples;Min_cycle;Max_cycle;Signal;HPM_P1;HPM_P2
2023/01/06 00:00:28;;;;;;;0.30;0.20;;;;;;;6.50;100.00;98391.59;1734938;81;21021;-54
2023/01/06 00:02:54;;;;;;;1.20;0.20;;;;;;;6.49;100.00;98399.20;1735883;81;21781;-55
2023/01/06 00:05:21;;;;;;;0.30;0.20;;;;;;;6.49;100.00;98391.66;1737336;81;21095;-54
2023/01/06 00:07:49;;;;;;;0.28;0.20;;;;;;;6.49;100.00;98401.88;1738919;81;21026;-54
2023/01/06 00:10:16;;;;;;;1.12;0.20;;;;;;;6.48;100.00;98402.83;1733528;80;21097;-55
2023/01/06 00:12:47;;;;;;;0.40;0.20;;;;;;;6.48;100.00;98403.30;1736845;80;21073;-54
2023/01/06 00:15:14;;;;;;;0.50;0.30;;;;;;;6.46;100.00;98412.76;1734891;81;23317;-54
2023/01/06 00:17:41;;;;;;;0.50;0.30;;;;;;;6.46;100.00;98409.58;1742854;80;21600;-55
2023/01/06 00:20:09;;;;;;;0.62;0.30;;;;;;;6.46;100.00;98415.43;1745570;80;21045;-55
2023/01/06 00:22:38;;;;;;;0.20;0.20;;;;;;;6.45;100.00;98421.25;1747400;80;21036;-55
2023/01/06 00:25:05;;;;;;;0.30;0.20;;;;;;;6.45;100.00;98421.25;1740620;80;22976;-54
2023/01/06 00:27:31;;;;;;;0.20;0.17;;;;;;;6.42;100.00;98424.07;1747373;80;21799;-54
2023/01/06 00:29:58;;;;;;;0.20;0.20;;;;;;;6.38;100.00;98435.02;1745638;81;21033;-55
2023/01/06 00:32:24;;;;;;;0.20;0.20;;;;;;;6.38;100.00;98428.34;1742781;80;21483;-55
2023/01/06 00:34:51;;;;;;;0.60;0.20;;;;;;;6.37;100.00;98434.62;1740680;80;21015;-55
2023/01/06 00:37:17;;;;;;;0.30;0.20;;;;;;;6.34;100.00;98434.30;1746333;80;20975;-54
2023/01/06 00:39:44;;;;;;;1.00;0.20;;;;;;;6.34;100.00;98440.11;1747961;80;21800;-55
2023/01/06 00:42:12;;;;;;;0.30;0.20;;;;;;;6.33;100.00;98438.37;1742328;81;21001;-54
2023/01/06 00:44:39;;;;;;;0.30;0.20;;;;;;;6.34;100.00;98442.78;1748246;81;21373;-54
2023/01/06 00:47:08;;;;;;;0.20;0.20;;;;;;;6.32;100.00;98452.69;1744781;81;21458;-55
2023/01/06 00:49:35;;;;;;;0.20;0.20;;;;;;;6.30;100.00;98454.09;1747156;81;20972;-54
2023/01/06 00:52:02;;;;;;;0.35;0.20;;;;;;;6.30;100.00;98455.90;1747137;81;21725;-55
2023/01/06 00:54:29;;;;;;;0.30;0.20;;;;;;;6.29;100.00;98460.87;1744135;81;21425;-54
2023/01/06 00:56:55;;;;;;;0.30;0.20;;;;;;;6.28;100.00;98461.34;1747726;81;20978;-55
2023/01/06 00:59:26;;;;;;;0.50;0.20;;;;;;;6.28;100.00;98461.82;1748481;81;21089;-53
2023/01/06 01:01:56;;;;;;;0.40;0.20;;;;;;;6.28;100.00;98461.82;1739491;81;21092;-51
2023/01/06 01:04:23;;;;;;;0.60;0.30;;;;;;;6.27;100.00;98466.77;1745190;80;21837;-52
2023/01/06 01:06:51;;;;;;;0.67;0.23;;;;;;;6.28;100.00;98468.50;1742243;81;21397;-54
2023/01/06 01:09:22;;;;;;;0.95;0.20;;;;;;;6.30;100.00;98476.81;1747517;81;21075;-52
2023/01/06 01:14:48;;;;;;;0.23;0.20;;;;;;;6.29;100.00;98474.24;1743848;80;21099;-52
2023/01/06 01:17:23;;;;;;;1.85;0.20;;;;;;;6.27;100.00;98478.32;1738675;80;21862;-52
2023/01/06 01:19:51;;;;;;;0.20;0.20;;;;;;;6.26;100.00;98476.59;1737785;81;21656;-53
2023/01/06 01:22:17;;;;;;;0.45;0.20;;;;;;;6.24;100.00;98476.27;1743266;80;21595;-52
2023/01/06 01:24:43;;;;;;;0.28;0.23;;;;;;;6.24;100.00;98481.14;1734691;81;21050;-51
2023/01/06 01:27:10;;;;;;;0.30;0.20;;;;;;;6.23;100.00;98483.87;1745123;80;21132;-51
2023/01/06 01:29:37;;;;;;;0.30;0.30;;;;;;;6.23;100.00;98488.75;1743689;80;21399;-53
2023/01/06 01:32:04;;;;;;;0.30;0.20;;;;;;;6.23;100.00;98495.91;1744002;80;21072;-54
2023/01/06 01:34:30;;;;;;;0.10;0.10;;;;;;;6.21;100.00;98495.98;1747811;80;21700;-52
2023/01/06 01:36:56;;;;;;;0.30;0.10;;;;;;;6.20;100.00;98506.30;1744294;80;21019;-53
2023/01/06 01:39:25;;;;;;;0.30;0.10;;;;;;;6.18;100.00;98504.17;1737853;80;21065;-53
2023/01/06 01:41:52;;;;;;;0.40;0.10;;;;;;;6.16;100.00;98502.51;1742936;80;21846;-56
2023/01/06 01:44:57;;;;;;;0.30;0.10;;;;;;;6.15;100.00;98505.65;1743016;80;21441;-54
2023/01/06 01:48:03;;;;;;;0.20;0.10;;;;;;;6.15;100.00;98506.11;1736689;80;21049;-54
2023/01/06 01:50:45;;;;;;;0.10;0.10;;;;;;;6.14;100.00;98504.38;1747870;80;21401;-51
2023/01/06 01:53:22;;;;;;;0.10;0.10;;;;;;;6.13;100.00;98507.52;1744075;80;21044;-52
2023/01/06 01:55:50;;;;;;;1.60;0.10;;;;;;;6.13;100.00;98517.34;1743283;80;21852;-51
2023/01/06 01:58:24;;;;;;;0.20;0.10;;;;;;;6.09;100.00;98527.33;1747695;80;21569;-51
2023/01/06 02:00:51;;;;;;;0.03;0.00;;;;;;;6.07;100.00;98534.55;1744935;80;21058;-53
2023/01/06 02:03:17;;;;;;;0.10;0.10;;;;;;;5.97;100.00;98539.48;1746119;80;21533;-52
2023/01/06 02:05:49;;;;;;;0.30;0.10;;;;;;;5.89;100.00;98540.32;1741536;81;21102;-52
2023/01/06 02:08:39;;;;;;;0.10;0.10;;;;;;;5.83;100.00;98537.92;1743133;80;21832;-53
2023/01/06 02:11:05;;;;;;;0.72;0.00;;;;;;;5.77;100.00;98555.58;1742315;80;21495;-51
2023/01/06 02:13:33;;;;;;;0.10;0.07;;;;;;;5.68;100.00;98562.23;1734356;80;21065;-51
2023/01/06 02:16:11;;;;;;;0.20;0.10;;;;;;;5.62;100.00;98562.96;1743807;80;21077;-50
2023/01/06 02:18:56;;;;;;;0.00;0.00;;;;;;;5.57;100.00;98577.88;1736417;81;21177;-52
2023/01/06 02:21:46;;;;;;;0.10;0.00;;;;;;;5.53;100.00;98575.43;1725801;81;21813;-52
2023/01/06 02:24:24;;;;;;;0.20;0.10;;;;;;;5.47;100.00;98581.03;1736486;81;21050;-54
2023/01/06 02:27:20;;;;;;;0.10;0.10;;;;;;;5.37;100.00;98591.72;1733192;81;21418;-52
2023/01/06 02:30:09;;;;;;;0.20;0.10;;;;;;;5.21;100.00;98603.09;1706075;81;21566;-52
2023/01/06 02:33:04;;;;;;;1.33;0.30;;;;;;;5.04;100.00;98606.11;1737375;81;21072;-51
2023/01/06 02:35:36;;;;;;;0.20;0.20;;;;;;;4.85;100.00;98615.38;1733187;80;21842;-52
2023/01/06 02:38:39;;;;;;;0.20;0.20;;;;;;;4.68;100.00;98621.92;1734481;81;21044;-52
2023/01/06 02:41:27;;;;;;;0.30;0.20;;;;;;;4.54;100.00;98624.69;1730990;81;21085;-51
2023/01/06 02:44:07;;;;;;;0.30;0.23;;;;;;;4.45;100.00;98637.52;1733642;81;21682;-53
2023/01/06 02:46:48;;;;;;;0.50;0.30;;;;;;;4.34;100.00;98653.09;1731651;81;21402;-55
2023/01/06 02:49:34;;;;;;;0.20;0.20;;;;;;;4.24;100.00;98652.59;1732437;81;21913;-50
2023/01/06 02:52:09;;;;;;;0.37;0.23;;;;;;;4.14;100.00;98656.09;1733632;81;21110;-53
2023/01/06 02:54:51;;;;;;;0.30;0.20;;;;;;;4.09;100.00;98674.48;1731838;80;21472;-51
2023/01/06 02:57:28;;;;;;;0.30;0.20;;;;;;;4.00;100.00;98673.05;1722021;81;21594;-53
2023/01/06 03:00:25;;;;;;;0.37;0.20;;;;;;;3.90;100.00;98677.48;1738236;81;21568;-53
2023/01/06 03:02:58;;;;;;;0.30;0.20;;;;;;;3.76;100.00;98689.50;1733329;81;22046;-55
2023/01/06 03:05:25;;;;;;;0.33;0.20;;;;;;;3.62;100.00;98702.47;1730164;81;21571;-50
2023/01/06 03:07:53;;;;;;;0.43;0.30;;;;;;;3.53;100.00;98709.91;1729905;81;21393;-51
2023/01/06 03:10:21;;;;;;;0.60;0.20;;;;;;;3.45;100.00;98718.64;1737034;81;20989;-51
2023/01/06 03:12:55;;;;;;;0.20;0.20;;;;;;;3.36;100.00;98723.83;1737321;80;21611;-51
2023/01/06 03:15:22;;;;;;;0.30;0.20;;;;;;;3.24;100.00;98736.21;1713770;81;21889;-51
2023/01/06 03:17:49;;;;;;;0.40;0.20;;;;;;;3.17;100.00;98734.23;1746207;81;20998;-51
2023/01/06 03:20:15;;;;;;;0.23;0.23;;;;;;;3.08;100.00;98739.86;1746603;81;20951;-53
2023/01/06 03:22:42;;;;;;;0.30;0.20;;;;;;;2.98;100.00;98745.08;1712713;82;21637;-54
2023/01/06 03:25:09;;;;;;;0.60;0.20;;;;;;;2.95;100.00;98750.06;1711888;82;21083;-51
2023/01/06 03:27:38;;;;;;;0.83;0.20;;;;;;;2.94;100.00;98761.61;1681825;83;21831;-50
2023/01/06 03:30:08;;;;;;;0.70;0.10;;;;;;;2.91;100.00;98763.48;1701619;83;20983;-54
2023/01/06 03:33:02;;;;;;;0.10;0.10;;;;;;;2.81;100.00;98773.55;1696760;82;21061;-54
2023/01/06 03:36:05;;;;;;;0.20;0.20;;;;;;;2.73;100.00;98777.37;1680915;83;21275;-51
2023/01/06 03:39:01;;;;;;;0.30;0.30;;;;;;;2.65;100.00;98775.83;1690494;82;21061;-52
2023/01/06 03:44:50;;;;;;;0.50;0.40;;;;;;;2.49;100.00;98804.25;1694565;83;21577;-50
2023/01/06 03:47:27;;;;;;;1.00;0.70;;;;;;;2.43;100.00;98806.66;1712923;82;21419;-52
2023/01/06 03:50:08;;;;;;;0.87;0.63;;;;;;;2.37;100.00;98809.96;1691355;83;21424;-51
2023/01/06 03:52:40;;;;;;;0.90;0.60;;;;;;;2.32;100.00;98815.39;1692814;82;21022;-51
2023/01/06 03:55:12;;;;;;;0.80;0.60;;;;;;;2.27;100.00;98822.19;1723232;82;21916;-51
2023/01/06 03:57:44;;;;;;;0.47;0.47;;;;;;;2.27;100.00;98835.46;1710683;82;21025;-51
2023/01/06 04:00:15;;;;;;;0.50;0.50;;;;;;;2.25;100.00;98839.94;1711590;82;21112;-53
2023/01/06 04:02:44;;;;;;;0.50;0.43;;;;;;;2.24;100.00;98858.56;1716054;83;21558;-51
2023/01/06 04:05:16;;;;;;;0.30;0.30;;;;;;;2.22;100.00;98860.39;1691755;83;21081;-52
2023/01/06 04:07:42;;;;;;;0.50;0.40;;;;;;;2.17;100.00;98864.52;1670449;83;21801;-50
2023/01/06 04:10:10;;;;;;;0.40;0.40;;;;;;;2.11;100.00;98871.34;1694494;83;21081;-52
2023/01/06 04:12:39;;;;;;;0.40;0.40;;;;;;;2.06;100.00;98878.55;1693097;83;21116;-52
2023/01/06 04:15:11;;;;;;;0.93;0.60;;;;;;;2.05;100.00;98882.11;1693362;83;21475;-50
2023/01/06 04:17:38;;;;;;;0.80;0.80;;;;;;;2.04;100.00;98889.65;1687955;83;21041;-52
2023/01/06 04:20:07;;;;;;;2.07;0.80;;;;;;;2.05;100.00;98893.17;1725504;81;21913;-52
2023/01/06 04:22:35;;;;;;;0.60;0.60;;;;;;;2.03;100.00;98901.21;1737072;81;21133;-50
2023/01/06 04:25:03;;;;;;;0.50;0.50;;;;;;;2.01;100.00;98902.16;1734285;81;21090;-52
2023/01/06 04:27:29;;;;;;;0.50;0.50;;;;;;;2.00;100.00;98913.23;1734739;81;21077;-51
2023/01/06 04:29:56;;;;;;;0.70;0.60;;;;;;;2.00;100.00;98918.53;1736500;81;21570;-50
2023/01/06 04:32:23;;;;;;;0.60;0.57;;;;;;;1.97;100.00;98926.56;1735950;81;21958;-49
2023/01/06 04:34:51;;;;;;;0.70;0.60;;;;;;;1.95;100.00;98925.77;1722334;82;21128;-49
2023/01/06 04:37:18;;;;;;;0.60;0.60;;;;;;;1.97;100.00;98937.64;1734062;82;22150;-52
2023/01/06 04:39:44;;;;;;;2.17;0.60;;;;;;;1.95;100.00;98944.80;1723092;82;21050;-56
2023/01/06 04:42:11;;;;;;;0.60;0.60;;;;;;;1.94;100.00;98951.01;1731021;82;21577;-51
2023/01/06 04:44:37;;;;;;;0.60;0.53;;;;;;;1.94;100.00;98957.64;1732252;82;21835;-50
2023/01/06 04:47:04;;;;;;;0.93;0.47;;;;;;;1.87;100.00;98964.41;1728523;80;21049;-52
2023/01/06 04:49:32;;;;;;;0.70;0.60;;;;;;;1.83;100.00;98972.51;1737130;82;21069;-51
2023/01/06 04:51:58;;;;;;;0.70;0.60;;;;;;;1.82;100.00;98971.64;1734995;82;21572;-50
2023/01/06 04:54:25;;;;;;;0.60;0.60;;;;;;;1.84;100.00;98979.56;1737083;82;21097;-50
2023/01/06 04:56:51;;;;;;;0.90;0.80;;;;;;;1.85;100.00;98982.19;1739941;81;21838;-50
2023/01/06 04:59:19;;;;;;;0.77;0.70;;;;;;;1.83;100.00;98997.27;1738727;82;21061;-53
2023/01/06 05:01:49;;;;;;;1.00;0.80;;;;;;;1.79;100.00;99015.94;1732637;82;21082;-50
2023/01/06 05:04:15;;;;;;;1.17;0.90;;;;;;;1.75;100.00;99021.80;1735385;81;21056;-54
2023/01/06 05:06:42;;;;;;;2.00;0.90;;;;;;;1.74;100.00;99032.44;1734631;81;21092;-52
2023/01/06 05:09:08;;;;;;;0.73;0.73;;;;;;;1.72;100.00;99035.13;1738754;81;21835;-50
2023/01/06 05:11:35;;;;;;;0.80;0.80;;;;;;;1.70;100.00;99041.40;1736601;81;21377;-51
2023/01/06 05:14:02;;;;;;;0.80;0.80;;;;;;;1.69;100.00;99051.59;1727108;81;21609;-51
2023/01/06 05:16:32;;;;;;;1.10;0.80;;;;;;;1.66;100.00;99063.59;1729102;81;21042;-50
2023/01/06 05:18:59;;;;;;;1.10;0.90;;;;;;;1.67;100.00;99064.88;1732076;82;21030;-49
2023/01/06 05:21:26;;;;;;;1.63;0.87;;;;;;;1.71;100.00;99077.15;1725114;82;21903;-53
2023/01/06 05:23:53;;;;;;;1.23;1.13;;;;;;;1.72;100.00;99083.33;1732512;81;21403;-53
2023/01/06 05:26:23;;;;;;;2.07;1.40;;;;;;;1.72;100.00;99099.25;1734338;80;21097;-50
2023/01/06 05:28:49;;;;;;;3.10;1.40;;;;;;;1.69;100.00;99098.02;1738299;81;22154;-51
2023/01/06 05:31:16;;;;;;;3.63;1.40;;;;;;;1.67;100.00;99098.05;1734218;80;21088;-50
2023/01/06 05:33:43;;;;;;;1.90;1.20;;;;;;;1.67;100.00;99100.70;1737470;81;21870;-51
2023/01/06 05:36:12;;;;;;;2.63;1.50;;;;;;;1.64;100.00;99103.86;1734235;81;21049;-52
2023/01/06 05:38:39;;;;;;;2.87;1.97;;;;;;;1.64;100.00;99098.55;1733079;81;21299;-49
2023/01/06 05:41:05;;;;;;;3.83;2.97;;;;;;;1.65;100.00;99108.27;1730765;81;21128;-52
2023/01/06 05:43:34;;;;;;;3.27;2.67;;;;;;;1.62;100.00;99103.89;1739384;82;21133;-51
2023/01/06 05:46:06;;;;;;;4.23;2.30;;;;;;;1.63;100.00;99106.97;1738490;81;21361;-50
2023/01/06 05:48:35;;;;;;;5.62;2.55;;;;;;;1.64;100.00;99110.05;1738206;82;27623;-49
2023/01/06 05:51:09;;;;;;;3.83;3.53;;;;;;;1.65;100.00;99111.79;1738571;80;21136;-50
2023/01/06 05:53:43;;;;;;;2.60;2.40;;;;;;;1.66;100.00;99125.48;1734736;81;22167;-52
2023/01/06 05:56:12;;;;;;;3.00;2.10;;;;;;;1.67;100.00;99131.20;1737699;81;22061;-52
2023/01/06 05:58:39;;;;;;;6.23;4.00;;;;;;;1.66;100.00;99142.72;1728863;82;21838;-51
2023/01/06 06:01:05;;;;;;;15.97;8.13;;;;;;;1.58;100.00;99142.02;1731254;81;21485;-52
2023/01/06 06:03:33;;;;;;;3.80;2.77;;;;;;;1.51;100.00;99159.85;1729966;81;21053;-52
2023/01/06 06:06:04;;;;;;;5.53;2.37;;;;;;;1.44;100.00;99155.59;1708203;82;21120;-51
2023/01/06 06:08:30;;;;;;;2.47;1.87;;;;;;;1.39;100.00;99153.47;1740726;81;21043;-53
2023/01/06 06:11:05;;;;;;;3.87;3.13;;;;;;;1.35;100.00;99175.67;1730444;81;22793;-53
2023/01/06 06:13:33;;;;;;;5.27;4.67;;;;;;;1.35;100.00;99175.67;1734440;81;21059;-50
2023/01/06 06:16:08;;;;;;;5.37;3.60;;;;;;;1.35;100.00;99186.27;1738558;80;20982;-50
2023/01/06 06:18:41;;;;;;;3.57;1.90;;;;;;;1.36;100.00;99196.43;1721732;81;21041;-50
2023/01/06 06:21:05;;;;;;;2.07;1.67;;;;;;;1.38;100.00;99201.23;1684365;83;20982;-52
2023/01/06 06:23:32;;;;;;;2.20;1.70;;;;;;;1.37;100.00;99203.00;1677438;83;21795;-50
2023/01/06 06:25:59;;;;;;;4.00;1.40;;;;;;;1.35;100.00;99214.56;1717002;82;20981;-51
2023/01/06 06:28:25;;;;;;;2.13;1.20;;;;;;;1.34;100.00;99216.80;1705768;81;21053;-52
2023/01/06 06:30:52;;;;;;;1.90;1.40;;;;;;;1.35;100.00;99229.16;1703935;82;21044;-52
2023/01/06 06:33:19;;;;;;;1.60;1.20;;;;;;;1.34;100.00;99237.56;1711763;81;21641;-51
2023/01/06 06:35:56;;;;;;;2.03;1.13;;;;;;;1.34;100.00;99236.23;1710322;82;21962;-51
2023/01/06 06:38:23;;;;;;;1.40;1.00;;;;;;;1.37;100.00;99246.76;1691700;81;21093;-52
2023/01/06 06:40:49;;;;;;;3.67;2.43;;;;;;;1.40;100.00;99248.03;1715205;81;21051;-53
2023/01/06 06:43:16;;;;;;;3.73;3.13;;;;;;;1.43;100.00;99257.27;1713975;82;21085;-51
2023/01/06 06:45:46;;;;;;;2.10;1.90;;;;;;;1.41;100.00;99267.02;1719426;81;21463;-50
2023/01/06 06:48:14;;;;;;;1.50;1.10;;;;;;;1.38;100.00;99285.63;1723633;82;22873;-56
2023/01/06 06:50:40;;;;;;;1.27;0.93;;;;;;;1.34;100.00;99283.96;1718679;81;21018;-52
2023/01/06 06:53:06;;;;;;;0.70;0.60;;;;;;;1.29;100.00;99286.25;1684917;83;20966;-51
2023/01/06 06:55:33;;;;;;;0.67;0.57;;;;;;;1.24;100.00;99298.28;1681171;83;20981;-51
2023/01/06 06:57:59;;;;;;;0.80;0.67;;;;;;;1.18;100.00;99304.16;1723461;81;21012;-51
2023/01/06 07:00:26;;;;;;;0.67;0.53;;;;;;;1.11;100.00;99304.23;1717384;82;21806;-51
2023/01/06 07:02:52;;;;;;;0.77;0.60;;;;;;;1.08;100.00;99311.38;1721260;82;21064;-51
2023/01/06 07:05:18;;;;;;;0.77;0.53;;;;;;;1.03;100.00;99320.72;1715812;82;21021;-50
2023/01/06 07:07:45;;;;;;;0.80;0.60;;;;;;;1.00;100.00;99327.87;1715207;82;21037;-51
2023/01/06 07:10:15;;;;;;;0.60;0.50;;;;;;;0.98;100.00;99334.52;1721960;81;21101;-51
2023/01/06 07:12:42;;;;;;;10.63;4.33;;;;;;;0.97;100.00;99339.39;1695227;82;21943;-50
2023/01/06 07:15:09;;;;;;;6.63;2.20;;;;;;;0.96;100.00;99348.23;1711684;82;21140;-52
2023/01/06 07:17:36;;;;;;;1.23;0.90;;;;;;;0.96;100.00;99353.53;1719004;81;21406;-52
2023/01/06 07:20:03;;;;;;;1.03;0.70;;;;;;;1.00;100.00;99366.30;1725681;81;21080;-52
2023/01/06 07:22:30;;;;;;;1.10;0.90;;;;;;;1.01;100.00;99375.55;1723549;81;21097;-53
2023/01/06 07:24:57;;;;;;;1.30;0.90;;;;;;;1.00;100.00;99377.78;1730991;81;21863;-49
2023/01/06 07:27:23;;;;;;;1.00;0.80;;;;;;;0.94;100.00;99388.45;1727709;81;21586;-49
2023/01/06 07:29:50;;;;;;;0.93;0.83;;;;;;;0.87;100.00;99400.05;1727213;81;21125;-52
2023/01/06 07:32:16;;;;;;;1.03;0.80;;;;;;;0.78;100.00;99404.16;1722056;81;21082;-51
2023/01/06 07:34:44;;;;;;;0.97;0.80;;;;;;;0.70;100.00;99409.56;1725325;81;21069;-51
2023/01/06 07:37:11;;;;;;;1.40;0.80;;;;;;;0.65;100.00;99431.28;1728357;81;21798;-53
2023/01/06 07:39:37;;;;;;;1.43;0.80;;;;;;;0.61;100.00;99424.25;1725760;81;21124;-51
2023/01/06 07:42:03;;;;;;;4.00;1.83;;;;;;;0.57;100.00;99429.19;1725978;81;21102;-52
2023/01/06 07:44:30;;;;;;;1.53;0.87;;;;;;;0.53;100.00;99435.41;1726647;81;21113;-52
2023/01/06 07:46:56;;;;;;;0.70;0.60;;;;;;;0.47;100.00;99442.55;1728121;81;21386;-52
2023/01/06 07:49:24;;;;;;;1.00;0.77;;;;;;;0.42;100.00;99460.28;1730849;81;21768;-54
2023/01/06 07:51:50;;;;;;;0.60;0.53;;;;;;;0.37;100.00;99449.29;1722988;81;21108;-50
2023/01/06 07:54:17;;;;;;;1.33;0.70;;;;;;;0.36;100.00;99457.24;1728174;81;21078;-52
2023/01/06 07:56:45;;;;;;;1.47;0.80;;;;;;;0.35;100.00;99476.22;1727293;81;21256;-53
2023/01/06 07:59:11;;;;;;;2.23;0.87;;;;;;;0.34;100.00;99473.62;1727707;81;21062;-53
2023/01/06 08:01:37;;;;;;;0.90;0.80;;;;;;;0.34;100.00;99487.70;1726509;81;21960;-52
2023/01/06 08:04:05;;;;;;;1.00;0.77;;;;;;;0.38;100.00;99501.80;1733195;81;21069;-51
2023/01/06 08:06:32;;;;;;;1.20;0.80;;;;;;;0.43;100.00;99520.27;1726484;81;21693;-49
2023/01/06 08:08:58;;;;;;;0.90;0.80;;;;;;;0.44;100.00;99513.63;1724386;81;21101;-53
2023/01/06 08:11:25;;;;;;;1.53;1.17;;;;;;;0.44;100.00;99524.23;1728662;81;21522;-50
2023/01/06 08:13:51;;;;;;;1.07;0.90;;;;;;;0.44;100.00;99532.61;1731362;81;21839;-51
2023/01/06 08:16:17;;;;;;;1.40;1.03;;;;;;;0.43;100.00;99540.12;1726836;81;21094;-51
2023/01/06 08:18:44;;;;;;;1.73;1.10;;;;;;;0.44;100.00;99543.20;1732376;81;21136;-50
2023/01/06 08:21:11;;;;;;;1.77;1.30;;;;;;;0.45;100.00;99546.29;1737875;81;21024;-50
2023/01/06 08:23:38;;;;;;;1.37;1.10;;;;;;;0.48;100.00;99555.09;1735174;81;21045;-53
2023/01/06 08:26:12;;;;;;;1.10;1.00;;;;;;;0.51;100.00;99556.84;1735788;81;21858;-50
2023/01/06 08:28:41;;;;;;;1.67;1.57;;;;;;;0.50;100.00;99567.88;1706424;81;21091;-48
2023/01/06 08:31:10;;;;;;;2.03;1.90;;;;;;;0.49;100.00;99577.16;1737613;80;21142;-49
2023/01/06 08:33:36;;;;;;;2.07;1.67;;;;;;;0.49;100.00;99582.45;1736880;81;21054;-48
2023/01/06 08:36:05;;;;;;;2.23;2.10;;;;;;;0.49;100.00;99586.42;1735332;81;21098;-50
2023/01/06 08:38:32;;;;;;;1.93;1.73;;;;;;;0.51;100.00;99601.86;1734735;80;21838;-47
2023/01/06 08:40:59;;;;;;;2.90;1.90;;;;;;;0.51;100.00;99600.05;1737520;81;21645;-50
2023/01/06 08:43:26;;;;;;;1.90;1.63;;;;;;;0.48;100.00;99614.67;1731841;81;21657;-50
2023/01/06 08:45:52;;;;;;;2.30;2.10;;;;;;;0.44;100.00;99610.28;1733151;81;21165;-51
2023/01/06 08:48:19;;;;;;;1.70;1.60;;;;;;;0.44;100.00;99612.05;1733900;80;21110;-48
2023/01/06 08:50:46;;;;;;;2.00;1.60;;;;;;;0.39;100.00;99614.77;1736642;81;23092;-49
2023/01/06 08:53:12;;;;;;;1.13;0.90;;;;;;;0.35;100.00;99608.60;1737680;81;21664;-49
2023/01/06 08:55:40;;;;;;;1.60;1.43;;;;;;;0.27;100.00;99606.48;1734006;80;21038;-50
2023/01/06 08:58:07;;;;;;;1.27;1.03;;;;;;;0.23;100.00;99610.06;1739138;80;21056;-48
2023/01/06 09:00:34;;;;;;;2.50;1.27;;;;;;;0.23;100.00;99607.41;1740189;80;21132;-52
2023/01/06 09:03:01;;;;;;;2.27;1.60;;;;;;;0.21;100.00;99600.37;1737954;81;21945;-50
2023/01/06 09:05:28;;;;;;;4.23;2.07;;;;;;;0.18;100.00;99607.00;1739738;81;21069;-48
2023/01/06 09:07:55;;;;;;;3.70;1.40;;;;;;;0.13;100.00;99607.06;1735038;80;21403;-49
2023/01/06 09:10:22;;;;;;;4.50;1.60;;;;;;;0.09;100.00;99610.61;1739140;80;20990;-51
2023/01/06 09:12:49;;;;;;;2.90;1.30;;;;;;;0.11;100.00;99612.80;1735974;80;20973;-47
2023/01/06 09:15:16;;;;;;;17.90;7.63;;;;;;;0.15;100.00;99625.13;1739387;80;21819;-47
2023/01/06 09:17:42;;;;;;;10.63;5.67;;;;;;;0.14;100.00;99615.88;1736145;81;21073;-50
2023/01/06 09:20:09;;;;;;;7.83;4.87;;;;;;;0.09;100.00;99627.81;1732209;80;21049;-47
2023/01/06 09:22:36;;;;;;;2.63;1.70;;;;;;;0.07;100.00;99621.67;1734511;81;21345;-48
2023/01/06 09:25:03;;;;;;;1.77;1.37;;;;;;;0.09;100.00;99629.58;1732815;80;21444;-49
2023/01/06 09:27:29;;;;;;;1.00;0.83;;;;;;;0.10;100.00;99625.59;1730742;81;21798;-48
2023/01/06 09:29:55;;;;;;;0.93;0.80;;;;;;;0.09;100.00;99630.90;1730959;81;21446;-48
2023/01/06 09:33:38;;;;;;;0.97;0.67;;;;;;;0.07;100.00;99628.73;1857882;75;27297;-49
2023/01/06 09:36:05;;;;;;;0.90;0.60;;;;;;;0.04;100.00;99648.16;1831389;76;21002;-53
2023/01/06 09:38:32;;;;;;;0.90;0.70;;;;;;;-0.03;100.00;99652.63;1838813;75;22471;-49
2023/01/06 09:41:37;;;;;;;0.80;0.60;;;;;;;-0.05;100.00;99656.16;1834977;77;20992;-50
2023/01/06 09:44:14;;;;;;;0.72;0.55;;;;;;;-0.02;100.00;99663.64;1816667;77;20954;-52
2023/01/06 09:46:43;;;;;;;0.87;0.47;;;;;;;0.03;100.00;99664.92;1836201;75;21055;-51
2023/01/06 09:49:29;;;;;;;0.70;0.47;;;;;;;0.07;100.00;99662.70;1838853;77;21000;-54
2023/01/06 09:52:12;;;;;;;0.60;0.40;;;;;;;0.04;100.00;99670.64;1841308;76;21763;-51
2023/01/06 09:55:01;;;;;;;0.57;0.30;;;;;;;-0.04;100.00;99672.47;1832159;77;21034;-49
2023/01/06 09:57:42;;;;;;;0.53;0.40;;;;;;;-0.11;100.00;99675.61;1775772;79;21579;-49
2023/01/06 10:00:48;;;;;;;0.60;0.50;;;;;;;-0.17;100.00;99674.30;1766872;79;21471;-52
2023/01/06 10:03:19;;;;;;;0.70;0.40;;;;;;;-0.22;100.00;99677.88;1750669;80;21075;-50
2023/01/06 10:06:28;;;;;;;0.67;0.50;;;;;;;-0.27;100.00;99688.50;1767514;78;21935;-49
2023/01/06 10:09:09;;;;;;;0.70;0.40;;;;;;;-0.28;100.00;99689.38;1740828;80;21354;-49
2023/01/06 10:12:02;;;;;;;0.77;0.60;;;;;;;-0.22;100.00;99697.27;1751116;80;21081;-49
2023/01/06 10:14:50;;;;;;;1.00;0.50;;;;;;;-0.24;100.00;99711.39;1777377;78;21519;-48
2023/01/06 10:17:40;;;;;;;0.97;0.50;;;;;;;-0.30;100.00;99717.60;1752250;80;21056;-48
2023/01/06 10:25:42;;;;;;;0.70;0.40;;;;;;;-0.43;100.00;99745.01;1717393;81;21120;-77
2023/01/06 10:28:43;;;;;;;0.80;0.60;;;;;;;-0.45;100.00;99750.73;1690511;83;21947;-77
2023/01/06 10:31:17;;;;;;;1.27;0.60;;;;;;;-0.46;100.00;99756.47;1688735;83;21130;-77
2023/01/06 10:33:55;;;;;;;0.60;0.40;;;;;;;-0.47;100.00;99757.79;1662788;84;21580;-77
2023/01/06 10:36:41;;;;;;;0.90;0.60;;;;;;;-0.52;100.00;99759.14;1677971;83;21049;-77
2023/01/06 10:39:13;;;;;;;2.23;0.50;;;;;;;-0.57;100.00;99764.87;1681449;83;21080;-78
2023/01/06 10:44:52;;;;;;;0.80;0.40;;;;;;;-0.56;100.00;99769.28;1681831;83;21072;-80
2023/01/06 10:47:24;;;;;;;1.57;0.40;;;;;;;-0.50;100.00;99773.66;1693100;83;22091;-79
2023/01/06 10:49:50;;;;;;;0.70;0.60;;;;;;;-0.46;100.00;99784.67;1646799;85;21694;-78
2023/01/06 10:52:17;;;;;;;0.80;0.50;;;;;;;-0.43;100.00;99792.61;1690836;83;21090;-79
2023/01/06 10:54:44;;;;;;;0.67;0.50;;;;;;;-0.40;100.00;99794.78;1682661;84;21957;-78
2023/01/06 10:57:25;;;;;;;0.67;0.50;;;;;;;-0.40;100.00;99801.83;1674383;84;21639;-79
2023/01/06 11:00:21;;;;;;;0.80;0.57;;;;;;;-0.42;100.00;99795.22;1672964;84;21116;-78
2023/01/06 11:02:53;;;;;;;0.63;0.47;;;;;;;-0.48;100.00;99798.33;1681086;84;21153;-78
2023/01/06 11:05:25;;;;;;;2.87;0.50;;;;;;;-0.55;100.00;99805.85;1671260;84;21080;-79
2023/01/06 11:08:04;;;;;;;0.80;0.50;;;;;;;-0.65;100.00;99802.79;1692160;83;23014;-79
2023/01/06 11:10:53;;;;;;;1.10;0.50;;;;;;;-0.69;100.00;99794.45;1649988;84;21518;-79
2023/01/06 11:13:34;;;;;;;0.60;0.50;;;;;;;-0.72;100.00;99787.84;1634490;84;21066;-80
2023/01/06 11:16:07;;;;;;;1.87;0.60;;;;;;;-0.79;100.00;99796.22;1657335;84;21136;-78
2023/01/06 11:18:39;;;;;;;0.93;0.70;;;;;;;-0.89;100.00;99796.68;1681062;83;21613;-78
2023/01/06 11:21:10;;;;;;;0.97;0.50;;;;;;;-0.96;100.00;99812.11;1684448;83;21854;-79
2023/01/06 11:23:41;;;;;;;1.07;0.60;;;;;;;-0.97;100.00;99807.70;1686800;83;21594;-78
2023/01/06 11:26:17;;;;;;;1.93;0.60;;;;;;;-0.97;100.00;99809.46;1655916;85;21075;-78
2023/01/06 11:28:46;;;;;;;0.80;0.50;;;;;;;-0.99;100.00;99828.39;1626676;86;21052;-78
2023/01/06 11:31:18;;;;;;;1.00;0.57;;;;;;;-1.02;100.00;99813.88;1624314;86;21107;-78
2023/01/06 11:33:57;;;;;;;0.83;0.60;;;;;;;-1.06;100.00;99820.92;1629652;86;22407;-78
2023/01/06 11:36:26;;;;;;;0.80;0.50;;;;;;;-1.08;100.00;99826.63;1635979;86;21518;-79
2023/01/06 11:38:58;;;;;;;0.90;0.60;;;;;;;-1.09;100.00;99833.23;1634682;86;21109;-79
2023/01/06 11:41:35;;;;;;;0.63;0.47;;;;;;;-1.13;100.00;99842.05;1655994;85;21060;-78
2023/01/06 11:44:13;;;;;;;1.10;0.50;;;;;;;-1.15;100.00;99853.94;1624866;86;21148;-78
2023/01/06 11:46:50;;;;;;;1.00;0.47;;;;;;;-1.16;100.00;99841.60;1624112;86;21092;-78
2023/01/06 11:49:25;;;;;;;0.70;0.50;;;;;;;-1.17;100.00;99853.93;1627584;86;21596;-79
2023/01/06 11:52:06;;;;;;;0.83;0.53;;;;;;;-1.18;100.00;99856.56;1644666;85;21109;-79
2023/01/06 11:54:38;;;;;;;0.80;0.80;;;;;;;-1.18;100.00;99864.05;1643060;85;21115;-78
2023/01/06 11:57:21;;;;;;;0.70;0.47;;;;;;;-1.20;100.00;99852.62;1647069;85;21075;-78
2023/01/06 12:00:11;;;;;;;0.60;0.50;;;;;;;-1.20;100.00;99857.91;1647575;85;21814;-78
2023/01/06 12:03:06;;;;;;;0.70;0.40;;;;;;;-1.19;100.00;99860.08;1646085;85;21052;-78
2023/01/06 12:05:55;;;;;;;;;;;;;;;-1.18;100.00;99855.24;1646254;85;21095;-78
2023/01/06 12:08:41;;;;;;;0.97;0.40;;;;;;;-1.20;100.00;99850.42;1645126;85;20821;-79